createdAt,value
2022-11-13T00:00:00.266Z,102530
2022-11-13T00:05:00.243Z,102560
2022-11-13T00:10:00.253Z,102540
2022-11-13T00:15:00.227Z,102520
2022-11-13T00:20:00.254Z,102520
2022-11-13T00:25:00.244Z,102500
2022-11-13T00:30:00.278Z,102510
2022-11-13T00:35:00.463Z,102530
2022-11-13T00:40:00.259Z,102530
2022-11-13T00:45:00.239Z,102520
2022-11-13T00:50:00.268Z,102530
2022-11-13T00:55:00.239Z,102510
2022-11-13T01:00:00.298Z,102490
2022-11-13T01:05:00.253Z,102510
2022-11-13T01:10:00.265Z,102490
2022-11-13T01:15:00.277Z,102510
2022-11-13T01:20:00.306Z,102500
2022-11-13T01:25:00.265Z,102510
2022-11-13T01:30:00.566Z,102520
2022-11-13T01:35:00.242Z,102500
2022-11-13T01:40:00.235Z,102480
2022-11-13T01:45:00.270Z,102470
2022-11-13T01:50:00.239Z,102470
2022-11-13T01:55:00.208Z,102470
2022-11-13T02:00:00.271Z,102470
2022-11-13T02:05:00.223Z,102440
2022-11-13T02:10:00.204Z,102440
2022-11-13T02:15:00.275Z,102450
2022-11-13T02:20:00.268Z,102440
2022-11-13T02:25:00.270Z,102440
2022-11-13T02:30:00.226Z,102430
2022-11-13T02:35:00.221Z,102410
2022-11-13T02:40:00.288Z,102440
2022-11-13T02:45:00.230Z,102440
2022-11-13T02:50:00.283Z,102420
2022-11-13T02:55:00.211Z,102410
2022-11-13T03:00:00.260Z,102430
2022-11-13T03:05:13.318Z,102430
2022-11-13T03:10:00.244Z,102390
2022-11-13T03:15:00.236Z,102390
2022-11-13T03:20:00.250Z,102400
2022-11-13T03:25:00.242Z,102400
2022-11-13T03:30:00.394Z,102390
2022-11-13T03:35:00.273Z,102380
2022-11-13T03:40:00.226Z,102390
2022-11-13T03:45:00.271Z,102370
2022-11-13T03:50:00.229Z,102380
2022-11-13T03:55:00.247Z,102360
2022-11-13T04:00:00.319Z,102350
2022-11-13T04:05:00.256Z,102340
2022-11-13T04:10:00.400Z,102360
2022-11-13T04:15:00.288Z,102330
2022-11-13T04:20:00.323Z,102340
2022-11-13T04:25:00.270Z,102340
2022-11-13T04:30:00.253Z,102340
2022-11-13T04:35:00.244Z,102350
2022-11-13T04:40:00.264Z,102330
2022-11-13T04:45:00.215Z,102350
2022-11-13T04:50:00.220Z,102350
2022-11-13T04:55:00.194Z,102360
2022-11-13T05:00:00.206Z,102350
2022-11-13T05:05:04.693Z,102330
2022-11-13T05:10:00.234Z,102330
2022-11-13T05:15:00.194Z,102300
2022-11-13T05:25:00.224Z,102330
2022-11-13T05:30:00.247Z,102300
2022-11-13T05:35:00.198Z,102300
2022-11-13T05:40:00.194Z,102300
2022-11-13T05:45:00.211Z,102290
2022-11-13T05:50:00.202Z,102310
2022-11-13T05:55:00.183Z,102300
2022-11-13T06:00:00.268Z,102300
2022-11-13T06:05:00.184Z,102300
2022-11-13T06:10:00.202Z,102290
2022-11-13T06:15:00.212Z,102280
2022-11-13T06:20:00.211Z,102290
2022-11-13T06:25:00.202Z,102280
2022-11-13T06:30:00.209Z,102270
2022-11-13T06:35:00.198Z,102260
2022-11-13T06:40:00.200Z,102280
2022-11-13T06:45:00.186Z,102270
2022-11-13T06:50:00.189Z,102260
2022-11-13T06:55:00.186Z,102280
2022-11-13T07:00:00.225Z,102240
2022-11-13T07:05:00.220Z,102260
2022-11-13T07:10:00.202Z,102240
2022-11-13T07:15:00.216Z,102240
2022-11-13T07:20:00.225Z,102260
2022-11-13T07:25:00.201Z,102250
2022-11-13T07:30:03.589Z,102240
2022-11-13T07:35:00.188Z,102250
2022-11-13T07:40:00.194Z,102250
2022-11-13T07:45:00.206Z,102220
2022-11-13T07:50:05.590Z,102240
2022-11-13T07:55:00.212Z,102220
2022-11-13T08:00:00.213Z,102240
2022-11-13T08:05:00.223Z,102230
2022-11-13T08:10:00.255Z,102260
2022-11-13T08:15:00.234Z,102270
2022-11-13T08:20:00.220Z,102240
2022-11-13T08:25:00.232Z,102230
2022-11-13T08:30:00.230Z,102220
2022-11-13T08:35:00.231Z,102210
2022-11-13T08:40:00.253Z,102200
2022-11-13T08:45:00.201Z,102190
2022-11-13T08:50:00.222Z,102200
2022-11-13T08:55:00.221Z,102190
2022-11-13T09:00:00.320Z,102180
2022-11-13T09:05:00.225Z,102200
2022-11-13T09:10:00.232Z,102180
2022-11-13T09:15:00.210Z,102190
2022-11-13T09:20:03.950Z,102190
2022-11-13T09:25:00.234Z,102180
2022-11-13T09:30:00.303Z,102190
2022-11-13T09:35:00.229Z,102170
2022-11-13T09:40:00.281Z,102160
2022-11-13T09:45:00.279Z,102170
2022-11-13T09:50:00.209Z,102160
2022-11-13T09:55:00.220Z,102140
2022-11-13T10:00:00.228Z,102160
2022-11-13T10:05:00.238Z,102160
2022-11-13T10:10:00.216Z,102160
2022-11-13T10:15:00.222Z,102150
2022-11-13T10:20:00.225Z,102150
2022-11-13T10:25:00.210Z,102150
2022-11-13T10:30:00.257Z,102150
2022-11-13T10:35:00.209Z,102150
2022-11-13T10:40:00.217Z,102120
2022-11-13T10:45:00.238Z,102140
2022-11-13T10:50:00.214Z,102100
2022-11-13T10:55:00.215Z,102080
2022-11-13T11:00:00.240Z,102120
2022-11-13T11:05:00.204Z,102090
2022-11-13T11:10:00.220Z,102100
2022-11-13T11:15:00.211Z,102100
2022-11-13T11:20:00.225Z,102070
2022-11-13T11:25:00.267Z,102080
2022-11-13T11:30:00.302Z,102070
2022-11-13T11:35:00.275Z,102050
2022-11-13T11:40:00.224Z,102040
2022-11-13T11:45:00.203Z,102040
2022-11-13T11:50:00.246Z,102040
2022-11-13T11:55:00.223Z,102040
2022-11-13T12:00:00.256Z,102050
2022-11-13T12:05:00.319Z,102030
2022-11-13T12:10:00.272Z,102000
2022-11-13T12:15:00.221Z,102010
2022-11-13T12:20:00.226Z,102010
2022-11-13T12:25:00.221Z,101980
2022-11-13T12:30:00.238Z,102000
2022-11-13T12:35:00.233Z,101990
2022-11-13T12:40:00.248Z,101950
2022-11-13T12:45:00.230Z,101970
2022-11-13T12:50:00.219Z,101950
2022-11-13T12:55:00.249Z,101970
2022-11-13T13:00:00.257Z,101940
2022-11-13T13:05:00.236Z,101950
2022-11-13T13:10:00.241Z,101940
2022-11-13T13:15:00.248Z,101940
2022-11-13T19:04:57.996Z,101660
2022-11-13T19:05:00.086Z,101660
2022-11-13T19:05:20.613Z,101660
2022-11-13T19:10:00.199Z,101680
2022-11-13T19:15:00.202Z,101700
2022-11-13T19:20:00.199Z,101690
2022-11-13T19:25:00.196Z,101700
2022-11-13T19:30:00.218Z,101660
2022-11-13T19:35:00.199Z,101650
2022-11-13T19:40:00.219Z,101650
2022-11-13T19:45:00.228Z,101630
2022-11-13T19:50:00.223Z,101660
2022-11-13T19:55:00.194Z,101650
2022-11-13T20:00:00.228Z,101650
2022-11-13T20:05:00.237Z,101620
2022-11-13T20:10:00.193Z,101620
2022-11-13T20:15:00.232Z,101610
2022-11-13T20:20:00.199Z,101640
2022-11-13T20:25:00.215Z,101610
2022-11-13T20:30:00.222Z,101610
2022-11-13T20:35:00.241Z,101590
2022-11-13T20:40:00.203Z,101570
2022-11-13T20:45:01.462Z,101600
2022-11-13T20:50:00.232Z,101560
2022-11-13T20:55:00.209Z,101580
2022-11-13T21:00:00.360Z,101600
2022-11-13T21:05:00.216Z,101600
2022-11-13T21:10:00.227Z,101600
2022-11-13T21:15:00.205Z,101600
2022-11-13T21:20:00.198Z,101580
2022-11-13T21:25:00.213Z,101540
2022-11-13T21:30:00.239Z,101540
2022-11-13T21:35:00.230Z,101560
2022-11-13T21:40:00.205Z,101560
2022-11-13T21:45:00.176Z,101550
2022-11-13T21:50:00.204Z,101550
2022-11-13T21:55:00.203Z,101560
2022-11-13T22:00:00.214Z,101550
2022-11-13T22:05:00.167Z,101560
2022-11-13T22:10:02.921Z,101560
2022-11-13T22:15:00.172Z,101560
2022-11-13T22:20:00.301Z,101540
2022-11-13T22:25:00.175Z,101550
2022-11-13T22:30:00.209Z,101550
2022-11-13T22:35:00.168Z,101540
2022-11-13T22:40:00.183Z,101540
2022-11-13T22:45:00.200Z,101540
2022-11-13T22:50:00.195Z,101520
2022-11-13T22:55:00.214Z,101540
2022-11-13T23:00:00.252Z,101530
2022-11-13T23:05:00.192Z,101510
2022-11-13T23:10:00.190Z,101500
2022-11-13T23:15:00.209Z,101510
2022-11-13T23:20:00.195Z,101500
2022-11-13T23:25:00.193Z,101500
2022-11-13T23:30:00.220Z,101490
2022-11-13T23:35:00.485Z,101490
2022-11-13T23:40:00.198Z,101490
2022-11-13T23:45:00.208Z,101490
2022-11-13T23:50:00.206Z,101490
2022-11-13T23:55:00.200Z,101470
